Rnli Lifeboat 17-16 — MCQT8 — position and weather

sailwx.info

Track history (hours):
 
Tides and Currents Weather Stations Pressure Air Temp Water Temp Dewpoint Dewpoint Depression Visibility Wind Speed Wind Dir Waves Ship Positions

Rnli Lifeboat 17-16

Last reported at 2016-Jun-26 11:07 UTC. Time now 2016-Jun-28 11:40 UTC.
Position N 58°58' W 003°18'.

Length 17 m; draft 1.4 m.

Type: SAR. MMSI: 232003134.

Date/timePositionNaut miles runAvg speedWind from/ knotsBaromVisibWave heightAir tempDewpointWater temp
2016-Jun-26 11:07N 58°58' W 003°18'  
2016-Jun-22 08:17N 58°58' W 003°18'0 0.0
2016-Jun-21 01:31N 58°58' W 003°18'0 0.0
2016-Jun-21 00:33N 58°58' W 003°18'3 0.1
2016-Jun-19 23:33N 58°60' W 003°22'1212.4
2016-Jun-19 22:33N 59°01' W 002°58'2 2.0
2016-Jun-19 21:27N 59°01' W 002°54'1614.9
2016-Jun-19 20:25N 59°08' W 003°21'14 1.4
2016-Jun-19 10:33N 58°54' W 003°26'1 1.2
2016-Jun-19 09:33N 58°53' W 003°27'6 0.3
2016-Jun-18 09:26N 58°58' W 003°18'0 0.0
2016-Jun-18 07:12N 58°58' W 003°18'  
Track history (hours):
 
Tides and Currents Weather Stations Pressure Air Temp Water Temp Dewpoint Dewpoint Depression Visibility Wind Speed Wind Dir Waves Ship Positions

Rnli Lifeboat 17-16

Last reported at 2016-Jun-26 11:07 UTC. Time now 2016-Jun-28 11:40 UTC.
Position N 58°58' W 003°18'.

Length 17 m; draft 1.4 m.

Type: SAR. MMSI: 232003134.

Date/timePositionNaut miles runAvg speedWind from/ knotsBaromVisibWave heightAir tempDewpointWater temp
2016-Jun-26 11:07N 58°58' W 003°18'  
2016-Jun-22 08:17N 58°58' W 003°18'0 0.0
2016-Jun-21 01:31N 58°58' W 003°18'0 0.0
2016-Jun-21 00:33N 58°58' W 003°18'3 0.1
2016-Jun-19 23:33N 58°60' W 003°22'1212.4
2016-Jun-19 22:33N 59°01' W 002°58'2 2.0
2016-Jun-19 21:27N 59°01' W 002°54'1614.9
2016-Jun-19 20:25N 59°08' W 003°21'14 1.4
2016-Jun-19 10:33N 58°54' W 003°26'1 1.2
2016-Jun-19 09:33N 58°53' W 003°27'6 0.3
2016-Jun-18 09:26N 58°58' W 003°18'0 0.0
2016-Jun-18 07:12N 58°58' W 003°18'  

Dump ship's entire track history